Data for 04/14/2008

Time Sea-Level Adjusted Pressure Absolute Pressure Temperature Relative Humidity Dew Point   
(mb) (inHg) (mb) (inHg) (C) (F) (%) (C) (F)
00:05 1019 30.09 848 25.04 8.5 47.3 41 -4.1 24.6
00:10 1019 30.09 848 25.04 8.6 47.4 41 -3.8 25.1
00:15 1018 30.06 848 25.04 8.6 47.4 42 -3.6 25.6
00:20 1018 30.06 848 25.04 8.5 47.4 42 -3.8 25.2
00:25 1018 30.06 848 25.04 8.9 48.1 40 -3.9 25.1
00:30 1018 30.06 848 25.04 9.2 48.5 39 -3.9 24.9
00:35 1018 30.06 848 25.04 9.3 48.7 40 -3.6 25.5
00:40 1018 30.06 847 25.01 9.2 48.5 40 -3.9 25
00:45 1018 30.06 847 25.01 9.1 48.5 40 -3.6 25.5
00:50 1018 30.06 847 25.01 8.9 48 40 -4 24.8
00:55 1018 30.06 847 25.01 9.1 48.3 41 -3.6 25.6
01:00 1018 30.06 847 25.01 8.8 47.8 41 -3.7 25.4
01:05 1018 30.06 847 25.01 8.8 47.8 42 -3.5 25.8
01:10 1018 30.06 847 25.01 8.6 47.6 42 -3.5 25.7
01:15 1018 30.06 847 25.01 8.6 47.5 42 -3.6 25.5
01:20 1018 30.06 847 25.01 8.8 47.8 41 -3.6 25.5
01:25 1018 30.06 847 25.01 8.8 47.8 42 -3.4 25.8
01:30 1018 30.06 847 25.01 8.7 47.6 43 -3.3 26
01:35 1018 30.06 847 25.01 8.6 47.5 43 -3.3 26
01:40 1018 30.06 847 25.01 8.6 47.5 43 -3.3 26
01:45 1017 30.03 847 25.01 8.6 47.5 43 -3.3 26.1
01:50 1017 30.03 847 25.01 8.7 47.7 42 -3.4 26
01:55 1017 30.03 847 25.01 8.8 47.9 42 -3.2 26.2
02:00 1017 30.03 846 24.98 8.8 47.9 43 -3 26.5
02:05 1017 30.03 846 24.98 8.7 47.6 44 -3 26.6
02:10 1017 30.03 846 24.98 8.6 47.4 44 -2.9 26.8
02:15 1017 30.03 846 24.98 8.5 47.3 45 -2.9 26.9
02:20 1017 30.03 846 24.98 8.5 47.2 45 -2.9 26.8
02:25 1017 30.03 846 24.98 8.5 47.2 45 -2.8 26.9
02:30 1017 30.03 846 24.98 8.6 47.4 45 -2.8 27
02:35 1016 30 846 24.98 8.6 47.5 44 -2.9 26.8
02:40 1016 30 846 24.98 8.8 47.8 44 -2.8 26.9
02:45 1016 30 846 24.98 8.7 47.7 44 -2.7 27.2
02:50 1016 30 846 24.98 8.7 47.6 44 -2.8 27
02:55 1016 30 845 24.95 8.7 47.7 44 -2.9 26.8
03:00 1016 30 845 24.95 8.8 47.8 43 -3 26.6
03:05 1016 30 845 24.95 8.9 47.9 43 -3 26.6
03:10 1016 30 845 24.95 8.9 48.1 42 -3.1 26.4
03:15 1016 30 845 24.95 9 48.3 42 -3 26.5
03:20 1016 30 845 24.95 9 48.2 42 -3.2 26.3
03:25 1016 30 845 24.95 8.9 48 42 -3.2 26.3
03:30 1016 30 845 24.95 8.7 47.6 43 -3.1 26.4
03:35 1016 30 845 24.95 8.6 47.5 43 -3.2 26.3
03:40 1016 30 845 24.95 8.7 47.6 43 -3.1 26.5
03:45 1016 30 845 24.95 8.7 47.6 43 -3.1 26.4
03:50 1016 30 845 24.95 8.7 47.7 43 -3 26.6
03:55 1016 30 845 24.95 8.7 47.7 43 -3 26.6
04:00 1016 30 845 24.95 8.6 47.5 44 -3 26.7
04:05 1015 29.97 845 24.95 8.5 47.2 44 -2.9 26.7
04:10 1015 29.97 845 24.95 8.5 47.2 44 -3.1 26.4
04:15 1015 29.97 845 24.95 8.6 47.4 44 -3 26.5
04:20 1015 29.97 844 24.92 8.4 47.1 45 -2.9 26.9
04:25 1015 29.97 844 24.92 8.1 46.5 46 -2.9 26.9
04:30 1015 29.97 844 24.92 7.8 46.1 47 -2.9 26.8
04:35 1015 29.97 844 24.92 7.7 45.9 46 -3.1 26.5
04:40 1015 29.97 844 24.92 7.8 46 47 -2.9 26.7
04:45 1015 29.97 844 24.92 7.8 46 46 -3.1 26.4
04:50 1015 29.97 844 24.92 7.9 46.1 46 -3 26.6
04:55 1015 29.97 844 24.92 7.9 46.2 46 -3.1 26.4
05:00 1015 29.97 844 24.92 7.9 46.3 46 -2.8 26.9
05:05 1015 29.97 844 24.92 7.8 46 47 -2.8 27
05:10 1015 29.97 844 24.92 7.7 45.8 47 -2.8 26.9
05:15 1015 29.97 844 24.92 8 46.4 45 -3.1 26.3
05:20 1015 29.97 844 24.92 8.2 46.8 45 -2.9 26.8
05:25 1015 29.97 844 24.92 8.1 46.6 46 -2.9 26.7
05:30 1015 29.97 844 24.92 8.1 46.6 46 -2.8 27
05:35 1015 29.97 844 24.92 7.9 46.2 46 -3 26.6
05:40 1015 29.97 844 24.92 8.1 46.5 48 -2.3 27.8
05:45 1015 29.97 844 24.92 7.5 45.5 48 -2.7 27.1
05:50 1014 29.94 844 24.92 7.5 45.5 49 -2.6 27.3
05:55 1014 29.94 844 24.92 7.4 45.4 48 -2.8 27
06:00 1014 29.94 844 24.92 7.7 45.9 47 -3 26.6
06:05 1014 29.94 843 24.89 8.1 46.5 46 -2.9 26.7
06:10 1014 29.94 843 24.89 8.1 46.6 45 -2.9 26.7
06:15 1014 29.94 843 24.89 8.1 46.5 46 -2.9 26.8
06:20 1014 29.94 843 24.89 7.9 46.2 46 -2.9 26.8
06:25 1014 29.94 843 24.89 7.7 45.9 47 -2.9 26.8
06:30 1014 29.94 843 24.89 7.7 45.8 47 -3 26.6
06:35 1014 29.94 843 24.89 7.6 45.7 47 -3 26.6
06:40 1014 29.94 843 24.89 7.6 45.7 47 -3.1 26.4
06:45 1014 29.94 843 24.89 7.7 45.9 46 -3.1 26.3
06:50 1014 29.94 843 24.89 7.7 45.9 46 -3.2 26.2
06:55 1014 29.94 843 24.89 7.8 46.1 45 -3.2 26.2
07:00 1014 29.94 843 24.89 7.9 46.2 46 -3.1 26.4
07:05 1013 29.91 843 24.89 7.8 46.1 46 -3.2 26.3
07:10 1013 29.91 843 24.89 7.9 46.3 45 -3.4 25.9
07:15 1013 29.91 843 24.89 8.2 46.7 45 -3 26.5
07:20 1013 29.91 843 24.89 8 46.4 45 -3 26.5
07:25 1013 29.91 843 24.89 8.2 46.7 44 -3.2 26.2
07:30 1013 29.91 843 24.89 8.7 47.6 43 -3.2 26.3
07:35 1013 29.91 843 24.89 8.7 47.7 43 -3.1 26.4
07:40 1013 29.91 843 24.89 8.8 47.9 43 -3.1 26.5
07:45 1013 29.91 843 24.89 9 48.2 42 -3.3 26.1
07:50 1013 29.91 843 24.89 9.3 48.7 41 -3.3 26.1
07:55 1013 29.91 843 24.89 9.5 49.1 40 -3.3 26.1
08:00 1013 29.91 842 24.86 9.7 49.4 40 -3.4 26
08:05 1013 29.91 842 24.86 9.8 49.7 39 -3.5 25.7
08:10 1013 29.91 842 24.86 10.1 50.1 38 -3.5 25.6
08:15 1013 29.91 842 24.86 10.3 50.6 38 -3.4 25.8
08:20 1013 29.91 842 24.86 10.4 50.6 39 -3.1 26.4
08:25 1013 29.91 842 24.86 10.4 50.6 37 -3.6 25.6
08:30 1013 29.91 842 24.86 10.5 50.8 38 -3.1 26.3
08:35 1013 29.91 842 24.86 10.5 50.8 38 -3.2 26.2
08:40 1013 29.91 842 24.86 10.5 51 38 -3.2 26.3
08:45 1013 29.91 842 24.86 10.6 51.1 37 -3.5 25.8
08:50 1013 29.91 842 24.86 11 51.7 36 -3.6 25.5
08:55 1013 29.91 842 24.86 11.6 52.8 33 -4.1 24.7
09:00 1013 29.91 842 24.86 12 53.6 33 -3.8 25.2
09:05 1013 29.91 842 24.86 12.1 53.7 34 -3.3 26
09:10 1013 29.91 842 24.86 12 53.5 32 -4 24.8
09:15 1012 29.88 842 24.86 12.6 54.6 33 -3.4 25.9
09:20 1012 29.88 842 24.86 12.6 54.7 33 -3.2 26.2
09:25 1012 29.88 841 24.83 12.6 54.6 34 -3 26.7
09:30 1012 29.88 841 24.83 12.4 54.4 33 -3.2 26.3
09:35 1012 29.88 841 24.83 12.6 54.7 33 -3 26.5
09:40 1012 29.88 841 24.83 12.8 55 33 -3.1 26.4
09:45 1012 29.88 841 24.83 12.9 55.3 33 -2.8 26.9
09:50 1012 29.88 841 24.83 13 55.4 33 -3 26.7
09:55 1012 29.88 841 24.83 13.3 55.9 33 -2.7 27.2
10:00 1012 29.88 841 24.83 13.6 56.6 32 -2.5 27.5
10:05 1011 29.85 841 24.83 13.8 56.9 33 -2.3 27.9
10:10 1011 29.85 841 24.83 13.8 56.8 32 -2.7 27.2
10:15 1011 29.85 840 24.81 13.8 56.8 31 -2.8 27
10:20 1011 29.85 840 24.81 13.8 56.8 32 -2.7 27.2
10:25 1011 29.85 840 24.81 13.7 56.7 32 -2.5 27.5
10:30 1011 29.85 840 24.81 13.6 56.5 32 -2.6 27.4
10:35 1011 29.85 840 24.81 13.7 56.6 32 -2.8 27
10:40 1010 29.83 840 24.81 13.7 56.6 30 -3.3 26
10:45 1011 29.85 840 24.81 14 57.2 31 -2.7 27.1
10:50 1011 29.85 840 24.81 14.6 58.2 29 -3.1 26.5
10:55 1010 29.83 840 24.81 15.2 59.3 25 -4.5 23.9
11:00 1010 29.83 840 24.81 16.2 61.1 25 -4 24.8
11:05 1010 29.83 839 24.78 16.7 62 25 -3.4 25.8
11:10 1010 29.83 839 24.78 16.9 62.3 23 -4.5 23.9
11:15 1010 29.83 839 24.78 17 62.6 23 -4.5 24
11:20 1010 29.83 839 24.78 17.3 63.2 22 -4.3 24.3
11:25 1010 29.83 839 24.78 17.5 63.5 22 -4.6 23.7
11:30 1010 29.83 839 24.78 17.7 63.9 21 -4.9 23.2
11:35 1010 29.83 839 24.78 17.9 64.2 20 -5 23
11:40 1010 29.83 839 24.78 17.8 64 20 -5.3 22.5
11:45 1010 29.83 839 24.78 18.3 64.9 18 -6.4 20.4
11:50 1009 29.8 839 24.78 18.8 65.9 18 -5.9 21.3
11:55 1009 29.8 838 24.75 19.3 66.7 15 -8.3 17.1
12:00 1009 29.8 838 24.75 19.8 67.7 15 -7.6 18.3
12:05 1009 29.8 838 24.75 19.8 67.6 16 -6.5 20.3
12:10 1009 29.8 838 24.75 19.5 67 17 -6.1 21
12:15 1009 29.8 838 24.75 19.2 66.5 15 -7.8 17.9
12:20 1009 29.8 838 24.75 19.3 66.8 15 -7.5 18.5
12:25 1009 29.8 838 24.75 19.7 67.4 17 -5.7 21.7
12:30 1009 29.8 838 24.75 20.2 68.3 16 -6.5 20.4
12:35 1009 29.8 838 24.75 20.3 68.6 16 -6.3 20.7
12:40 1009 29.8 838 24.75 20.3 68.5 16 -6 21.2
12:45 1009 29.8 838 24.75 20.3 68.5 16 -6.6 20.2
12:50 1009 29.8 838 24.75 20.4 68.7 16 -6.5 20.4
12:55 1009 29.8 838 24.75 20.9 69.5 15 -6.4 20.6
13:00 1009 29.8 838 24.75 20.9 69.6 15 -6.9 19.5
13:05 1009 29.8 838 24.75 20.9 69.6 15 -6.8 19.7
13:10 1009 29.8 838 24.75 20.7 69.2 16 -6.3 20.7
13:15 1008 29.77 838 24.75 21 69.7 14 -7.8 17.9
13:20 1008 29.77 838 24.75 21.2 70.2 14 -7.6 18.2
13:25 1008 29.77 838 24.75 21.2 70.2 15 -6.3 20.7
13:30 1008 29.77 838 24.75 21.5 70.8 14 -7 19.4
13:35 1008 29.77 837 24.72 21.2 70.1 15 -6.6 20.1
13:40 1008 29.77 837 24.72 21.2 70.1 14 -7.3 18.8
13:45 1008 29.77 837 24.72 21.1 69.9 14 -7.7 18.2
13:50 1008 29.77 837 24.72 21 69.9 14 -7.7 18.2
13:55 1008 29.77 837 24.72 21.3 70.4 14 -7.3 18.9
14:00 1008 29.77 837 24.72 21.7 71 14 -7.2 19
14:05 1008 29.77 837 24.72 21.7 71.1 14 -6.6 20.1
14:10 1008 29.77 837 24.72 21.8 71.3 13 -7.2 19
14:15 1008 29.77 837 24.72 21.8 71.2 14 -7 19.5
14:20 1008 29.77 837 24.72 21.7 71 14 -6.9 19.5
14:25 1008 29.77 837 24.72 21.3 70.4 14 -6.7 19.9
14:30 1008 29.77 837 24.72 21.2 70.2 15 -6 21.3
14:35 1008 29.77 837 24.72 21.5 70.7 14 -6.6 20.1
14:40 1008 29.77 837 24.72 21.1 70.1 14 -6.8 19.7
14:45 1007 29.74 837 24.72 21.1 70 15 -6.1 21
14:50 1007 29.74 837 24.72 21.4 70.5 15 -5.9 21.4
14:55 1007 29.74 836 24.69 21.4 70.5 15 -5.8 21.6
15:00 1007 29.74 836 24.69 21.2 70.1 16 -5.9 21.3
15:05 1007 29.74 836 24.69 21.2 70.2 14 -6.8 19.8
15:10 1007 29.74 836 24.69 21.2 70.2 14 -6.8 19.8
15:15 1007 29.74 836 24.69 21.6 70.8 14 -6.9 19.5
15:20 1007 29.74 836 24.69 21.6 70.8 15 -5.8 21.6
15:25 1007 29.74 836 24.69 21.7 71.1 14 -6.5 20.2
15:30 1007 29.74 836 24.69 22.2 71.9 14 -6.7 20
15:35 1007 29.74 836 24.69 22.1 71.7 14 -6.8 19.8
15:40 1007 29.74 836 24.69 21.9 71.4 13 -7.4 18.6
15:45 1007 29.74 836 24.69 21.7 71.1 14 -6.9 19.6
15:50 1007 29.74 836 24.69 21.6 70.9 14 -6.7 20
15:55 1007 29.74 836 24.69 21.7 71 14 -6.7 20
16:00 1007 29.74 836 24.69 21.4 70.4 15 -6.4 20.5
16:05 1007 29.74 836 24.69 21.3 70.3 14 -6.7 20
16:10 1007 29.74 836 24.69 21.2 70.2 15 -6.5 20.3
16:15 1007 29.74 836 24.69 20.8 69.4 15 -6.4 20.5
16:20 1007 29.74 836 24.69 20.7 69.2 15 -6.4 20.5
16:25 1007 29.74 836 24.69 20.8 69.5 16 -6 21.2
16:30 1007 29.74 836 24.69 20.9 69.6 15 -6.5 20.2
16:35 1006 29.71 836 24.69 20.9 69.7 16 -6 21.2
16:40 1006 29.71 836 24.69 20.8 69.5 15 -6.5 20.4
16:45 1006 29.71 836 24.69 20.7 69.2 16 -6.1 21
16:50 1006 29.71 836 24.69 20.5 69 17 -5.6 21.9
16:55 1006 29.71 835 24.66 20.7 69.2 16 -6 21.2
17:00 1006 29.71 835 24.66 20.6 69 16 -6.1 21.1
17:05 1006 29.71 835 24.66 20.7 69.3 16 -6.3 20.7
17:10 1006 29.71 835 24.66 20.8 69.4 15 -6.6 20.2
17:15 1006 29.71 835 24.66 21 69.7 16 -5.6 21.9
17:20 1006 29.71 835 24.66 20.8 69.4 16 -5.9 21.4
17:25 1006 29.71 835 24.66 20.4 68.8 16 -6.1 21.1
17:30 1006 29.71 835 24.66 20.3 68.6 15 -6.9 19.6
17:35 1006 29.71 835 24.66 20.6 69 15 -6.7 19.9
17:40 1006 29.71 835 24.66 20.6 69.1 16 -6.1 21
17:45 1005 29.68 835 24.66 20.6 69 16 -6 21.2
17:50 1005 29.68 834 24.63 20.1 68.2 17 -5.4 22.2
17:55 1005 29.68 834 24.63 20.1 68.1 19 -4.2 24.5
18:00 1005 29.68 834 24.63 20.2 68.4 20 -3.3 26
18:05 1005 29.68 834 24.63 20.4 68.6 18 -4.3 24.2
18:10 1005 29.68 834 24.63 20.3 68.5 20 -3.3 26.1
18:15 1005 29.68 834 24.63 19.7 67.4 20 -3.5 25.7
18:20 1005 29.68 834 24.63 19.3 66.7 22 -2.7 27.2
18:25 1005 29.68 834 24.63 19 66.3 21 -3.4 25.9
18:30 1005 29.68 834 24.63 19 66.1 22 -3.1 26.3
18:35 1005 29.68 834 24.63 18.8 65.8 22 -3.1 26.3
18:40 1005 29.68 834 24.63 18.5 65.3 23 -2.6 27.3
18:45 1005 29.68 834 24.63 18.5 65.3 22 -3.6 25.5
18:50 1005 29.68 834 24.63 18.6 65.5 23 -2.6 27.4
18:55 1005 29.68 834 24.63 18.5 65.2 23 -2.7 27.2
19:00 1005 29.68 834 24.63 18.2 64.8 24 -2.7 27.2
19:05 1004 29.65 834 24.63 18 64.4 24 -2.7 27.1
19:10 1004 29.65 834 24.63 17.9 64.3 23 -3.1 26.4
19:15 1004 29.65 833 24.6 18 64.5 24 -2.7 27.1
19:20 1004 29.65 833 24.6 18 64.3 24 -2.9 26.9
19:25 1004 29.65 833 24.6 17.7 63.9 25 -2.3 27.9
19:30 1004 29.65 833 24.6 17.6 63.7 25 -2.5 27.5
19:35 1004 29.65 833 24.6 17.5 63.6 25 -2.5 27.5
19:40 1004 29.65 833 24.6 17.7 63.8 24 -3.1 26.3
19:45 1004 29.65 833 24.6 17.7 63.8 24 -2.9 26.8
19:50 1004 29.65 833 24.6 17.6 63.7 24 -3.2 26.2
19:55 1004 29.65 833 24.6 17.9 64.2 24 -3.1 26.5
20:00 1004 29.65 833 24.6 17.8 64.1 24 -2.9 26.8
20:05 1004 29.65 833 24.6 17.6 63.7 26 -2.1 28.2
20:10 1003 29.62 833 24.6 17.3 63.2 25 -2.8 26.9
20:15 1003 29.62 833 24.6 17.3 63.2 25 -3 26.7
20:20 1003 29.62 833 24.6 17.3 63.1 24 -3.2 26.3
20:25 1003 29.62 833 24.6 17.2 62.9 25 -3 26.7
20:30 1003 29.62 833 24.6 17 62.5 25 -3 26.6
20:35 1003 29.62 832 24.57 16.6 61.9 26 -2.9 26.7
20:40 1003 29.62 832 24.57 16.4 61.5 26 -3.2 26.3
20:45 1003 29.62 832 24.57 16.5 61.6 26 -3.1 26.4
20:50 1003 29.62 832 24.57 16.2 61.1 26 -3.1 26.4
20:55 1003 29.62 833 24.6 16.1 61 27 -3 26.7
21:00 1003 29.62 832 24.57 15.8 60.5 27 -3.1 26.4
21:05 1003 29.62 832 24.57 15.7 60.3 27 -3.3 26.1
21:10 1003 29.62 832 24.57 15.9 60.5 26 -3.3 26
21:15 1003 29.62 833 24.6 15.6 60.1 27 -3.2 26.2
21:20 1003 29.62 833 24.6 15.1 59.2 29 -2.8 26.9
21:25 1003 29.62 832 24.57 15 58.9 26 -4.4 24.1
21:30 1003 29.62 832 24.57 15.8 60.4 26 -3.7 25.3
21:35 1003 29.62 832 24.57 15.8 60.4 26 -3.6 25.4
21:40 1003 29.62 832 24.57 15.7 60.3 26 -3.5 25.7
21:45 1003 29.62 832 24.57 15.1 59.2 27 -3.6 25.5
21:50 1003 29.62 832 24.57 15 59.1 27 -3.7 25.4
21:55 1003 29.62 832 24.57 14.7 58.4 28 -3.5 25.7
22:00 1003 29.62 832 24.57 14.4 57.8 29 -3.4 26
22:05 1003 29.62 832 24.57 13.7 56.6 31 -3.1 26.5
22:10 1003 29.62 832 24.57 13 55.4 32 -3.3 26.1
22:15 1002 29.59 832 24.57 12.8 55 34 -2.8 26.9
22:20 1002 29.59 832 24.57 12.3 54.1 34 -3.2 26.2
22:25 1002 29.59 832 24.57 12.1 53.7 35 -3 26.6
22:30 1002 29.59 832 24.57 11.7 53 34 -3.6 25.5
22:35 1002 29.59 831 24.54 11.7 53 34 -3.5 25.7
22:40 1002 29.59 831 24.54 11.6 52.8 34 -3.8 25.1
22:45 1002 29.59 831 24.54 11.6 52.8 35 -3.5 25.7
22:50 1002 29.59 831 24.54 11.3 52.3 35 -3.7 25.3
22:55 1002 29.59 831 24.54 11.2 52.2 34 -3.8 25.1
23:00 1002 29.59 831 24.54 11.2 52.1 35 -3.6 25.5
23:05 1002 29.59 831 24.54 10.8 51.5 37 -3.3 26.1
23:10 1002 29.59 831 24.54 10.4 50.8 38 -3.1 26.4
23:15 1001 29.56 831 24.54 10.2 50.3 39 -3 26.5
23:20 1001 29.56 831 24.54 10 50 39 -3.2 26.3
23:25 1001 29.56 831 24.54 10 50 39 -3.4 25.9
23:30 1001 29.56 831 24.54 10.3 50.5 37 -3.9 25
23:35 1001 29.56 830 24.51 10.6 51 38 -3.1 26.5
23:40 1001 29.56 830 24.51 10.2 50.3 37 -4 24.8
23:45 1001 29.56 830 24.51 10.9 51.6 33 -4.6 23.7
23:50 1001 29.56 830 24.51 11.5 52.8 33 -4.2 24.4
23:55 1001 29.56 830 24.51 11.6 52.9 33 -3.9 25
24:00 1001 29.56 831 24.54 11.6 52.9 33 -4 24.8